sensor_id;sensor_type;location;lat;lon;timestamp;pressure;altitude;pressure_sealevel;temperature;humidity
70745;BME280;59284;31.390;34.904;2023-01-27T00:00:09;94951.28;;;15.24;100.00
70745;BME280;59284;31.390;34.904;2023-01-27T00:02:39;94955.88;;;15.35;100.00
70745;BME280;59284;31.390;34.904;2023-01-27T00:05:06;94951.69;;;15.34;100.00
70745;BME280;59284;31.390;34.904;2023-01-27T00:07:32;94957.16;;;15.12;100.00
70745;BME280;59284;31.390;34.904;2023-01-27T00:09:58;94961.00;;;15.06;100.00
70745;BME280;59284;31.390;34.904;2023-01-27T00:12:25;94968.22;;;15.09;100.00
70745;BME280;59284;31.390;34.904;2023-01-27T00:15:11;94966.50;;;15.22;100.00
70745;BME280;59284;31.390;34.904;2023-01-27T00:17:37;94970.53;;;15.19;100.00
70745;BME280;59284;31.390;34.904;2023-01-27T00:20:04;94972.66;;;15.17;100.00
70745;BME280;59284;31.390;34.904;2023-01-27T00:22:31;94963.31;;;15.16;100.00
70745;BME280;59284;31.390;34.904;2023-01-27T00:25:15;94966.41;;;15.10;100.00
70745;BME280;59284;31.390;34.904;2023-01-27T00:27:41;94958.03;;;15.25;100.00
70745;BME280;59284;31.390;34.904;2023-01-27T00:30:08;94965.44;;;15.23;100.00
70745;BME280;59284;31.390;34.904;2023-01-27T00:32:34;94970.78;;;15.35;100.00
70745;BME280;59284;31.390;34.904;2023-01-27T00:35:20;94985.84;;;15.29;100.00
70745;BME280;59284;31.390;34.904;2023-01-27T00:37:46;94986.91;;;15.37;100.00
70745;BME280;59284;31.390;34.904;2023-01-27T00:40:14;94979.97;;;15.41;100.00
70745;BME280;59284;31.390;34.904;2023-01-27T00:42:40;94985.88;;;15.21;100.00
70745;BME280;59284;31.390;34.904;2023-01-27T00:45:06;94981.41;;;15.30;100.00
70745;BME280;59284;31.390;34.904;2023-01-27T00:47:51;94979.38;;;15.44;100.00
70745;BME280;59284;31.390;34.904;2023-01-27T00:50:17;94977.50;;;15.36;100.00
70745;BME280;59284;31.390;34.904;2023-01-27T00:52:44;94974.44;;;15.34;100.00
70745;BME280;59284;31.390;34.904;2023-01-27T00:55:13;94975.88;;;15.23;100.00
70745;BME280;59284;31.390;34.904;2023-01-27T00:57:40;94972.03;;;15.20;100.00
70745;BME280;59284;31.390;34.904;2023-01-27T01:00:07;94970.19;;;15.21;100.00
70745;BME280;59284;31.390;34.904;2023-01-27T01:02:34;94971.09;;;15.25;100.00
70745;BME280;59284;31.390;34.904;2023-01-27T01:05:00;94968.34;;;15.21;100.00
70745;BME280;59284;31.390;34.904;2023-01-27T01:07:25;94967.72;;;15.24;100.00
70745;BME280;59284;31.390;34.904;2023-01-27T01:09:51;94966.97;;;15.15;100.00
70745;BME280;59284;31.390;34.904;2023-01-27T01:12:17;94969.13;;;15.13;100.00
70745;BME280;59284;31.390;34.904;2023-01-27T01:14:43;94964.09;;;15.00;100.00
70745;BME280;59284;31.390;34.904;2023-01-27T01:17:08;94968.22;;;15.09;100.00
70745;BME280;59284;31.390;34.904;2023-01-27T01:19:34;94964.44;;;14.98;100.00
70745;BME280;59284;31.390;34.904;2023-01-27T01:22:00;94963.81;;;14.93;100.00
70745;BME280;59284;31.390;34.904;2023-01-27T01:24:25;94964.09;;;15.00;100.00
70745;BME280;59284;31.390;34.904;2023-01-27T01:26:53;94957.91;;;15.21;100.00
70745;BME280;59284;31.390;34.904;2023-01-27T01:29:18;94964.09;;;15.00;100.00
70745;BME280;59284;31.390;34.904;2023-01-27T01:31:49;94952.47;;;15.35;100.00
70745;BME280;59284;31.390;34.904;2023-01-27T01:34:15;94956.59;;;14.98;100.00
70745;BME280;59284;31.390;34.904;2023-01-27T01:36:41;94949.41;;;15.24;100.00
70745;BME280;59284;31.390;34.904;2023-01-27T01:39:07;94957.00;;;15.09;100.00
70745;BME280;59284;31.390;34.904;2023-01-27T01:41:32;94954.38;;;15.17;100.00
70745;BME280;59284;31.390;34.904;2023-01-27T01:44:16;94935.66;;;15.07;100.00
70745;BME280;59284;31.390;34.904;2023-01-27T01:46:42;94937.00;;;15.13;100.00
70745;BME280;59284;31.390;34.904;2023-01-27T01:49:08;94940.59;;;15.00;100.00
70745;BME280;59284;31.390;34.904;2023-01-27T01:51:39;94927.56;;;15.29;100.00
70745;BME280;59284;31.390;34.904;2023-01-27T01:54:21;94926.06;;;15.28;100.00
70745;BME280;59284;31.390;34.904;2023-01-27T01:59:54;94924.97;;;15.29;100.00
70745;BME280;59284;31.390;34.904;2023-01-27T02:02:23;94916.09;;;15.13;100.00
70745;BME280;59284;31.390;34.904;2023-01-27T02:04:54;94917.69;;;15.05;100.00
70745;BME280;59284;31.390;34.904;2023-01-27T02:07:30;94901.97;;;15.14;100.00
70745;BME280;59284;31.390;34.904;2023-01-27T02:09:59;94906.53;;;15.25;100.00
70745;BME280;59284;31.390;34.904;2023-01-27T02:12:25;94904.03;;;15.00;100.00
70745;BME280;59284;31.390;34.904;2023-01-27T02:14:51;94900.97;;;14.98;100.00
70745;BME280;59284;31.390;34.904;2023-01-27T02:17:18;94908.63;;;14.94;100.00
70745;BME280;59284;31.390;34.904;2023-01-27T02:20:11;94899.69;;;15.50;100.00
70745;BME280;59284;31.390;34.904;2023-01-27T02:27:59;94896.84;;;14.88;100.00
70745;BME280;59284;31.390;34.904;2023-01-27T02:30:24;94896.69;;;15.31;100.00
70745;BME280;59284;31.390;34.904;2023-01-27T02:32:51;94896.31;;;15.41;100.00
70745;BME280;59284;31.390;34.904;2023-01-27T02:35:41;94891.75;;;15.67;100.00
70745;BME280;59284;31.390;34.904;2023-01-27T02:38:08;94896.38;;;15.62;100.00
70745;BME280;59284;31.390;34.904;2023-01-27T02:40:36;94892.47;;;16.17;100.00
70745;BME280;59284;31.390;34.904;2023-01-27T02:43:03;94912.38;;;15.31;100.00
70745;BME280;59284;31.390;34.904;2023-01-27T02:45:30;94909.34;;;15.50;100.00
70745;BME280;59284;31.390;34.904;2023-01-27T02:47:55;94910.78;;;15.47;100.00
70745;BME280;59284;31.390;34.904;2023-01-27T02:50:21;94900.78;;;15.40;100.00
70745;BME280;59284;31.390;34.904;2023-01-27T02:52:48;94910.78;;;15.47;100.00
70745;BME280;59284;31.390;34.904;2023-01-27T02:55:13;94910.28;;;15.54;100.00
70745;BME280;59284;31.390;34.904;2023-01-27T02:57:39;94912.88;;;15.16;100.00
70745;BME280;59284;31.390;34.904;2023-01-27T03:00:05;94918.66;;;15.68;100.00
70745;BME280;59284;31.390;34.904;2023-01-27T03:02:33;94919.81;;;15.50;100.00
70745;BME280;59284;31.390;34.904;2023-01-27T03:04:59;94926.78;;;15.37;100.00
70745;BME280;59284;31.390;34.904;2023-01-27T03:07:25;94918.56;;;15.56;100.00
70745;BME280;59284;31.390;34.904;2023-01-27T03:09:51;94914.16;;;15.39;100.00
70745;BME280;59284;31.390;34.904;2023-01-27T03:12:19;94941.78;;;15.57;100.00
70745;BME280;59284;31.390;34.904;2023-01-27T03:14:52;94937.88;;;15.72;100.00
70745;BME280;59284;31.390;34.904;2023-01-27T03:17:39;94940.69;;;15.87;100.00
70745;BME280;59284;31.390;34.904;2023-01-27T03:20:23;94955.28;;;15.68;100.00
70745;BME280;59284;31.390;34.904;2023-01-27T03:22:49;94967.34;;;15.43;100.00
70745;BME280;59284;31.390;34.904;2023-01-27T03:25:15;94966.84;;;15.87;100.00
70745;BME280;59284;31.390;34.904;2023-01-27T03:27:41;94961.53;;;15.75;100.00
70745;BME280;59284;31.390;34.904;2023-01-27T03:30:07;94965.13;;;15.91;100.00
70745;BME280;59284;31.390;34.904;2023-01-27T03:32:34;94961.72;;;15.32;100.00
70745;BME280;59284;31.390;34.904;2023-01-27T03:35:00;94970.97;;;15.13;100.00
70745;BME280;59284;31.390;34.904;2023-01-27T03:37:30;94968.81;;;15.23;100.00
70745;BME280;59284;31.390;34.904;2023-01-27T03:40:15;94964.66;;;15.22;100.00
70745;BME280;59284;31.390;34.904;2023-01-27T03:43:00;94970.03;;;15.26;100.00
70745;BME280;59284;31.390;34.904;2023-01-27T03:45:47;94963.53;;;15.32;100.00
70745;BME280;59284;31.390;34.904;2023-01-27T03:48:32;94961.16;;;15.01;100.00
70745;BME280;59284;31.390;34.904;2023-01-27T03:51:01;94972.69;;;15.09;100.00
70745;BME280;59284;31.390;34.904;2023-01-27T03:53:28;94972.00;;;15.37;100.00
70745;BME280;59284;31.390;34.904;2023-01-27T03:55:54;94981.34;;;14.84;100.00
70745;BME280;59284;31.390;34.904;2023-01-27T03:58:28;94980.03;;;15.24;100.00
70745;BME280;59284;31.390;34.904;2023-01-27T04:00:56;94984.69;;;15.10;100.00
70745;BME280;59284;31.390;34.904;2023-01-27T04:03:27;94975.13;;;15.14;100.00
70745;BME280;59284;31.390;34.904;2023-01-27T04:06:18;94984.53;;;15.15;100.00
70745;BME280;59284;31.390;34.904;2023-01-27T04:09:03;94999.09;;;15.16;100.00
70745;BME280;59284;31.390;34.904;2023-01-27T04:11:29;94992.53;;;15.01;100.00
70745;BME280;59284;31.390;34.904;2023-01-27T04:14:14;94994.69;;;14.99;100.00
70745;BME280;59284;31.390;34.904;2023-01-27T04:16:40;94996.00;;;15.31;100.00
70745;BME280;59284;31.390;34.904;2023-01-27T04:19:07;94995.38;;;15.34;100.00
70745;BME280;59284;31.390;34.904;2023-01-27T04:21:34;94991.53;;;15.31;100.00
70745;BME280;59284;31.390;34.904;2023-01-27T04:24:00;94982.44;;;15.46;100.00
70745;BME280;59284;31.390;34.904;2023-01-27T04:26:29;94988.28;;;15.52;100.00
70745;BME280;59284;31.390;34.904;2023-01-27T04:29:02;94989.00;;;15.61;100.00
70745;BME280;59284;31.390;34.904;2023-01-27T04:31:28;94999.03;;;14.87;100.00
70745;BME280;59284;31.390;34.904;2023-01-27T04:33:54;94997.97;;;14.70;100.00
70745;BME280;59284;31.390;34.904;2023-01-27T04:36:20;94991.94;;;14.78;100.00
70745;BME280;59284;31.390;34.904;2023-01-27T04:38:46;94985.81;;;14.74;100.00
70745;BME280;59284;31.390;34.904;2023-01-27T04:41:14;94986.25;;;14.94;100.00
70745;BME280;59284;31.390;34.904;2023-01-27T04:43:39;94985.69;;;15.34;100.00
70745;BME280;59284;31.390;34.904;2023-01-27T04:46:05;94983.56;;;15.66;100.00
70745;BME280;59284;31.390;34.904;2023-01-27T04:48:31;94990.13;;;15.51;100.00
70745;BME280;59284;31.390;34.904;2023-01-27T04:50:59;94983.94;;;15.56;100.00
70745;BME280;59284;31.390;34.904;2023-01-27T04:53:25;94981.38;;;15.47;100.00
70745;BME280;59284;31.390;34.904;2023-01-27T04:55:51;94983.28;;;15.67;100.00
70745;BME280;59284;31.390;34.904;2023-01-27T04:58:16;94995.06;;;15.44;100.00
70745;BME280;59284;31.390;34.904;2023-01-27T05:00:45;94985.06;;;15.46;100.00
70745;BME280;59284;31.390;34.904;2023-01-27T05:03:13;94988.06;;;15.65;100.00
70745;BME280;59284;31.390;34.904;2023-01-27T05:05:43;94994.06;;;15.57;100.00
70745;BME280;59284;31.390;34.904;2023-01-27T05:08:10;94991.06;;;15.76;100.00
70745;BME280;59284;31.390;34.904;2023-01-27T05:10:42;94996.53;;;15.62;100.00
70745;BME280;59284;31.390;34.904;2023-01-27T05:13:09;94994.00;;;15.74;100.00
70745;BME280;59284;31.390;34.904;2023-01-27T05:15:34;94997.03;;;15.85;100.00
70745;BME280;59284;31.390;34.904;2023-01-27T05:18:00;95004.19;;;15.67;100.00
70745;BME280;59284;31.390;34.904;2023-01-27T05:20:26;95001.50;;;15.84;100.00
70745;BME280;59284;31.390;34.904;2023-01-27T05:22:51;94993.34;;;16.36;100.00
70745;BME280;59284;31.390;34.904;2023-01-27T05:25:41;94997.78;;;16.35;100.00
70745;BME280;59284;31.390;34.904;2023-01-27T05:28:08;94992.63;;;16.27;100.00
70745;BME280;59284;31.390;34.904;2023-01-27T05:30:33;94998.56;;;16.36;100.00
70745;BME280;59284;31.390;34.904;2023-01-27T05:33:00;94991.03;;;16.75;100.00
70745;BME280;59284;31.390;34.904;2023-01-27T05:35:26;94992.44;;;16.73;100.00
70745;BME280;59284;31.390;34.904;2023-01-27T05:37:52;94991.84;;;16.47;100.00
70745;BME280;59284;31.390;34.904;2023-01-27T05:40:18;94986.16;;;16.86;100.00
70745;BME280;59284;31.390;34.904;2023-01-27T05:42:45;94993.16;;;16.82;100.00
70745;BME280;59284;31.390;34.904;2023-01-27T05:45:13;94999.31;;;16.98;100.00
70745;BME280;59284;31.390;34.904;2023-01-27T05:47:40;94994.75;;;17.07;100.00
70745;BME280;59284;31.390;34.904;2023-01-27T05:50:07;94983.31;;;17.24;100.00
70745;BME280;59284;31.390;34.904;2023-01-27T05:52:33;94992.41;;;17.38;100.00
70745;BME280;59284;31.390;34.904;2023-01-27T05:55:05;94987.28;;;17.42;100.00
70745;BME280;59284;31.390;34.904;2023-01-27T05:57:31;94991.91;;;17.45;100.00
70745;BME280;59284;31.390;34.904;2023-01-27T05:59:56;94987.88;;;17.60;100.00
70745;BME280;59284;31.390;34.904;2023-01-27T06:02:23;94988.44;;;17.65;100.00
70745;BME280;59284;31.390;34.904;2023-01-27T06:04:49;94993.56;;;17.98;100.00
70745;BME280;59284;31.390;34.904;2023-01-27T06:07:15;94994.22;;;18.07;100.00
70745;BME280;59284;31.390;34.904;2023-01-27T06:09:40;94999.34;;;18.15;100.00
70745;BME280;59284;31.390;34.904;2023-01-27T06:12:16;95002.38;;;18.42;100.00
70745;BME280;59284;31.390;34.904;2023-01-27T06:14:43;94998.00;;;18.46;100.00
70745;BME280;59284;31.390;34.904;2023-01-27T06:17:09;95006.16;;;18.44;100.00
70745;BME280;59284;31.390;34.904;2023-01-27T06:19:35;94994.25;;;18.86;100.00
70745;BME280;59284;31.390;34.904;2023-01-27T06:22:12;94990.41;;;19.12;100.00
70745;BME280;59284;31.390;34.904;2023-01-27T06:24:38;94984.16;;;18.88;100.00
70745;BME280;59284;31.390;34.904;2023-01-27T06:27:03;94989.22;;;19.25;100.00
70745;BME280;59284;31.390;34.904;2023-01-27T06:29:31;94983.63;;;20.20;100.00
70745;BME280;59284;31.390;34.904;2023-01-27T06:31:57;94990.88;;;20.07;100.00
70745;BME280;59284;31.390;34.904;2023-01-27T06:34:23;94989.53;;;19.98;100.00
70745;BME280;59284;31.390;34.904;2023-01-27T06:36:48;94995.28;;;20.19;100.00
70745;BME280;59284;31.390;34.904;2023-01-27T06:39:14;94998.78;;;20.42;100.00
70745;BME280;59284;31.390;34.904;2023-01-27T06:41:40;94994.38;;;20.46;100.00
70745;BME280;59284;31.390;34.904;2023-01-27T06:44:07;95008.91;;;20.40;100.00
70745;BME280;59284;31.390;34.904;2023-01-27T06:46:32;94997.72;;;20.27;100.00
70745;BME280;59284;31.390;34.904;2023-01-27T06:48:58;95005.53;;;20.40;100.00
70745;BME280;59284;31.390;34.904;2023-01-27T06:51:24;95016.13;;;19.93;100.00
70745;BME280;59284;31.390;34.904;2023-01-27T06:53:50;95015.09;;;20.86;100.00
70745;BME280;59284;31.390;34.904;2023-01-27T06:56:15;95015.69;;;20.95;100.00
70745;BME280;59284;31.390;34.904;2023-01-27T06:58:43;95017.56;;;20.94;100.00
70745;BME280;59284;31.390;34.904;2023-01-27T07:01:08;95014.88;;;21.10;100.00
70745;BME280;59284;31.390;34.904;2023-01-27T07:03:34;95023.22;;;21.35;100.00
70745;BME280;59284;31.390;34.904;2023-01-27T07:06:00;95018.22;;;20.53;100.00
70745;BME280;59284;31.390;34.904;2023-01-27T07:08:26;95028.88;;;20.76;100.00
70745;BME280;59284;31.390;34.904;2023-01-27T07:10:51;95007.00;;;21.14;100.00
70745;BME280;59284;31.390;34.904;2023-01-27T07:13:17;95025.53;;;21.36;100.00
70745;BME280;59284;31.390;34.904;2023-01-27T07:15:43;95017.69;;;21.21;100.00
70745;BME280;59284;31.390;34.904;2023-01-27T07:18:10;95018.06;;;21.64;100.00
70745;BME280;59284;31.390;34.904;2023-01-27T07:20:37;95014.66;;;21.41;100.00
70745;BME280;59284;31.390;34.904;2023-01-27T07:23:03;95000.59;;;22.02;100.00
70745;BME280;59284;31.390;34.904;2023-01-27T07:25:31;94998.59;;;21.95;100.00
70745;BME280;59284;31.390;34.904;2023-01-27T07:28:01;95010.09;;;22.06;100.00
70745;BME280;59284;31.390;34.904;2023-01-27T07:30:36;95020.31;;;21.85;100.00
70745;BME280;59284;31.390;34.904;2023-01-27T07:33:13;95017.09;;;22.48;100.00
70745;BME280;59284;31.390;34.904;2023-01-27T07:35:43;95014.78;;;23.05;100.00
70745;BME280;59284;31.390;34.904;2023-01-27T07:38:11;95000.94;;;23.19;100.00
70745;BME280;59284;31.390;34.904;2023-01-27T07:40:42;95007.09;;;22.60;100.00
70745;BME280;59284;31.390;34.904;2023-01-27T07:43:11;95002.09;;;22.55;100.00
70745;BME280;59284;31.390;34.904;2023-01-27T07:45:37;95010.03;;;22.85;100.00
70745;BME280;59284;31.390;34.904;2023-01-27T07:48:05;95013.75;;;22.80;100.00
70745;BME280;59284;31.390;34.904;2023-01-27T07:50:32;95011.34;;;22.42;100.00
70745;BME280;59284;31.390;34.904;2023-01-27T07:52:59;95013.88;;;22.91;100.00
70745;BME280;59284;31.390;34.904;2023-01-27T07:55:25;95019.59;;;22.11;100.00
70745;BME280;59284;31.390;34.904;2023-01-27T07:57:55;95009.09;;;22.14;100.00
70745;BME280;59284;31.390;34.904;2023-01-27T08:00:22;95002.19;;;22.95;100.00
70745;BME280;59284;31.390;34.904;2023-01-27T08:02:53;95002.56;;;22.94;100.00
70745;BME280;59284;31.390;34.904;2023-01-27T08:05:20;94997.13;;;21.98;100.00
70745;BME280;59284;31.390;34.904;2023-01-27T08:07:48;95006.38;;;22.96;100.00
70745;BME280;59284;31.390;34.904;2023-01-27T08:10:17;94998.84;;;22.39;100.00
70745;BME280;59284;31.390;34.904;2023-01-27T08:12:45;95006.09;;;23.05;100.00
70745;BME280;59284;31.390;34.904;2023-01-27T08:15:12;94999.34;;;23.44;100.00
70745;BME280;59284;31.390;34.904;2023-01-27T08:17:43;95004.00;;;23.58;100.00
70745;BME280;59284;31.390;34.904;2023-01-27T08:20:10;94988.41;;;25.69;100.00
70745;BME280;59284;31.390;34.904;2023-01-27T08:22:41;94990.81;;;27.72;100.00
70745;BME280;59284;31.390;34.904;2023-01-27T08:25:07;94986.94;;;27.14;100.00
70745;BME280;59284;31.390;34.904;2023-01-27T08:27:33;95003.50;;;25.40;98.92
70745;BME280;59284;31.390;34.904;2023-01-27T08:29:58;94995.16;;;27.96;93.69
70745;BME280;59284;31.390;34.904;2023-01-27T08:32:24;94982.63;;;28.75;90.66
70745;BME280;59284;31.390;34.904;2023-01-27T08:34:50;94978.47;;;28.70;88.12
70745;BME280;59284;31.390;34.904;2023-01-27T08:37:16;94978.56;;;27.78;88.63
70745;BME280;59284;31.390;34.904;2023-01-27T08:39:41;94974.88;;;28.09;85.18
70745;BME280;59284;31.390;34.904;2023-01-27T08:42:07;94965.72;;;28.10;86.35
70745;BME280;59284;31.390;34.904;2023-01-27T08:44:33;94952.56;;;28.30;83.53
70745;BME280;59284;31.390;34.904;2023-01-27T08:46:58;94943.28;;;29.85;80.20
70745;BME280;59284;31.390;34.904;2023-01-27T08:49:24;94940.47;;;30.78;75.55
70745;BME280;59284;31.390;34.904;2023-01-27T08:51:51;94942.97;;;31.73;74.75
70745;BME280;59284;31.390;34.904;2023-01-27T08:54:17;94961.66;;;30.69;74.30
70745;BME280;59284;31.390;34.904;2023-01-27T08:56:43;94951.97;;;29.13;74.55
70745;BME280;59284;31.390;34.904;2023-01-27T08:59:08;94949.41;;;28.76;79.01
70745;BME280;59284;31.390;34.904;2023-01-27T09:01:34;94937.81;;;29.69;73.55
70745;BME280;59284;31.390;34.904;2023-01-27T09:04:00;94941.13;;;28.97;79.00
70745;BME280;59284;31.390;34.904;2023-01-27T09:06:25;94928.97;;;30.58;71.14
70745;BME280;59284;31.390;34.904;2023-01-27T09:08:51;94956.00;;;28.68;66.85
70745;BME280;59284;31.390;34.904;2023-01-27T09:11:37;94931.19;;;31.18;68.08
70745;BME280;59284;31.390;34.904;2023-01-27T09:14:03;94928.84;;;28.39;69.07
70745;BME280;59284;31.390;34.904;2023-01-27T09:16:29;94919.66;;;30.04;69.14
70745;BME280;59284;31.390;34.904;2023-01-27T09:18:55;94909.09;;;31.95;66.66
70745;BME280;59284;31.390;34.904;2023-01-27T09:21:22;94899.88;;;34.05;62.88
70745;BME280;59284;31.390;34.904;2023-01-27T09:23:48;94923.66;;;30.15;66.05
70745;BME280;59284;31.390;34.904;2023-01-27T09:26:14;94910.38;;;31.06;67.53
70745;BME280;59284;31.390;34.904;2023-01-27T09:28:40;94897.41;;;32.18;63.02
70745;BME280;59284;31.390;34.904;2023-01-27T09:31:06;94895.25;;;30.21;64.27
70745;BME280;59284;31.390;34.904;2023-01-27T09:33:34;94892.53;;;32.13;63.39
70745;BME280;59284;31.390;34.904;2023-01-27T09:36:18;94901.69;;;29.35;62.76
70745;BME280;59284;31.390;34.904;2023-01-27T09:38:51;94896.09;;;27.60;64.06
70745;BME280;59284;31.390;34.904;2023-01-27T09:55:24;94854.81;;;31.10;63.59
70745;BME280;59284;31.390;34.904;2023-01-27T10:09:29;94844.69;;;30.27;60.20
70745;BME280;59284;31.390;34.904;2023-01-27T10:23:08;94811.78;;;32.48;55.94
70745;BME280;59284;31.390;34.904;2023-01-27T10:25:56;94817.69;;;31.09;56.08
70745;BME280;59284;31.390;34.904;2023-01-27T10:28:28;94809.97;;;32.04;56.27
70745;BME280;59284;31.390;34.904;2023-01-27T10:31:00;94800.97;;;32.11;53.72
70745;BME280;59284;31.390;34.904;2023-01-27T10:33:50;94802.78;;;34.21;50.79
70745;BME280;59284;31.390;34.904;2023-01-27T10:36:28;94817.84;;;32.24;53.44
70745;BME280;59284;31.390;34.904;2023-01-27T10:41:48;94811.63;;;29.78;52.38
70745;BME280;59284;31.390;34.904;2023-01-27T10:44:52;94791.06;;;31.02;52.91
70745;BME280;59284;31.390;34.904;2023-01-27T10:47:35;94787.09;;;31.55;51.81
70745;BME280;59284;31.390;34.904;2023-01-27T10:50:08;94803.00;;;29.67;51.67
70745;BME280;59284;31.390;34.904;2023-01-27T10:52:40;94800.38;;;31.13;52.70
70745;BME280;59284;31.390;34.904;2023-01-27T10:57:57;94819.06;;;31.49;50.98
70745;BME280;59284;31.390;34.904;2023-01-27T11:00:41;94813.72;;;30.26;52.62
70745;BME280;59284;31.390;34.904;2023-01-27T11:03:27;94814.06;;;29.46;51.80
70745;BME280;59284;31.390;34.904;2023-01-27T11:06:02;94820.75;;;29.57;53.65
70745;BME280;59284;31.390;34.904;2023-01-27T11:08:34;94830.63;;;30.03;53.29
70745;BME280;59284;31.390;34.904;2023-01-27T11:11:05;94833.31;;;30.23;51.58
70745;BME280;59284;31.390;34.904;2023-01-27T11:13:58;94846.06;;;30.35;52.34
70745;BME280;59284;31.390;34.904;2023-01-27T11:16:34;94846.66;;;29.83;52.72
70745;BME280;59284;31.390;34.904;2023-01-27T11:19:10;94833.00;;;31.57;52.69
70745;BME280;59284;31.390;34.904;2023-01-27T11:21:39;94831.84;;;29.99;53.11
70745;BME280;59284;31.390;34.904;2023-01-27T11:24:29;94815.91;;;33.50;49.84
70745;BME280;59284;31.390;34.904;2023-01-27T11:27:17;94825.09;;;29.71;53.17
70745;BME280;59284;31.390;34.904;2023-01-27T11:29:57;94818.91;;;32.14;51.57
70745;BME280;59284;31.390;34.904;2023-01-27T11:32:52;94827.84;;;29.67;53.91
70745;BME280;59284;31.390;34.904;2023-01-27T11:35:20;94812.50;;;30.50;52.48
70745;BME280;59284;31.390;34.904;2023-01-27T11:37:50;94793.28;;;33.73;50.66
70745;BME280;59284;31.390;34.904;2023-01-27T11:40:42;94786.53;;;33.68;48.55
70745;BME280;59284;31.390;34.904;2023-01-27T11:43:15;94788.59;;;36.21;47.47
70745;BME280;59284;31.390;34.904;2023-01-27T11:45:42;94788.44;;;34.85;47.61
70745;BME280;59284;31.390;34.904;2023-01-27T11:48:13;94797.13;;;30.70;50.12
70745;BME280;59284;31.390;34.904;2023-01-27T11:50:42;94776.50;;;36.58;46.59
70745;BME280;59284;31.390;34.904;2023-01-27T11:53:28;94790.53;;;32.67;46.64
70745;BME280;59284;31.390;34.904;2023-01-27T11:55:59;94780.56;;;30.59;50.32
70745;BME280;59284;31.390;34.904;2023-01-27T11:58:46;94766.81;;;34.15;48.81
70745;BME280;59284;31.390;34.904;2023-01-27T12:01:18;94748.28;;;38.31;44.41
70745;BME280;59284;31.390;34.904;2023-01-27T12:04:02;94751.69;;;37.49;43.52
70745;BME280;59284;31.390;34.904;2023-01-27T12:06:39;94760.97;;;33.04;46.34
70745;BME280;59284;31.390;34.904;2023-01-27T12:09:31;94748.28;;;35.63;44.69
70745;BME280;59284;31.390;34.904;2023-01-27T12:12:24;94754.72;;;33.20;44.59
70745;BME280;59284;31.390;34.904;2023-01-27T12:14:56;94767.38;;;30.13;47.76
70745;BME280;59284;31.390;34.904;2023-01-27T12:17:30;94756.31;;;31.14;47.37
70745;BME280;59284;31.390;34.904;2023-01-27T12:20:06;94749.56;;;31.83;46.37
70745;BME280;59284;31.390;34.904;2023-01-27T12:22:44;94738.97;;;32.59;45.72
70745;BME280;59284;31.390;34.904;2023-01-27T12:25:17;94745.34;;;30.77;49.81
70745;BME280;59284;31.390;34.904;2023-01-27T12:27:58;94746.50;;;30.24;48.81
70745;BME280;59284;31.390;34.904;2023-01-27T12:30:33;94746.25;;;30.54;49.30
70745;BME280;59284;31.390;34.904;2023-01-27T12:33:11;94732.44;;;37.23;43.42
70745;BME280;59284;31.390;34.904;2023-01-27T12:35:38;94744.63;;;32.36;45.75
70745;BME280;59284;31.390;34.904;2023-01-27T12:38:22;94743.69;;;31.60;47.72
70745;BME280;59284;31.390;34.904;2023-01-27T12:41:00;94742.88;;;31.75;46.42
70745;BME280;59284;31.390;34.904;2023-01-27T12:43:26;94732.50;;;34.28;45.89
70745;BME280;59284;31.390;34.904;2023-01-27T12:46:13;94735.41;;;32.62;43.66
70745;BME280;59284;31.390;34.904;2023-01-27T12:48:49;94723.56;;;33.87;44.55
70745;BME280;59284;31.390;34.904;2023-01-27T12:51:33;94722.16;;;34.26;43.57
70745;BME280;59284;31.390;34.904;2023-01-27T12:54:23;94735.94;;;31.49;45.94
70745;BME280;59284;31.390;34.904;2023-01-27T12:56:54;94719.69;;;34.10;44.58
70745;BME280;59284;31.390;34.904;2023-01-27T12:59:24;94722.63;;;30.49;44.89
70745;BME280;59284;31.390;34.904;2023-01-27T13:02:19;94714.31;;;32.98;45.82
70745;BME280;59284;31.390;34.904;2023-01-27T13:04:53;94725.84;;;34.90;42.18
70745;BME280;59284;31.390;34.904;2023-01-27T13:07:28;94712.38;;;36.08;39.90
70745;BME280;59284;31.390;34.904;2023-01-27T13:10:01;94722.16;;;36.06;40.39
70745;BME280;59284;31.390;34.904;2023-01-27T13:12:35;94736.16;;;31.55;
70745;BME280;59284;31.390;34.904;2023-01-27T13:15:21;94719.19;;;32.66;41.82
70745;BME280;59284;31.390;34.904;2023-01-27T13:17:53;94742.75;;;31.21;43.18
70745;BME280;59284;31.390;34.904;2023-01-27T13:20:29;94722.75;;;35.19;43.07
70745;BME280;59284;31.390;34.904;2023-01-27T13:26:16;94721.97;;;31.54;42.73
70745;BME280;59284;31.390;34.904;2023-01-27T13:40:04;94711.53;;;32.89;43.64
70745;BME280;59284;31.390;34.904;2023-01-27T13:42:50;94706.31;;;33.54;43.13
70745;BME280;59284;31.390;34.904;2023-01-27T13:45:38;94705.81;;;33.12;42.98
70745;BME280;59284;31.390;34.904;2023-01-27T13:48:25;94715.94;;;32.20;42.79
70745;BME280;59284;31.390;34.904;2023-01-27T13:51:12;94708.75;;;31.76;43.89
70745;BME280;59284;31.390;34.904;2023-01-27T13:53:38;94715.91;;;31.38;43.15
70745;BME280;59284;31.390;34.904;2023-01-27T13:56:15;94711.56;;;30.31;41.11
70745;BME280;59284;31.390;34.904;2023-01-27T14:10:14;94724.03;;;30.89;42.81
70745;BME280;59284;31.390;34.904;2023-01-27T14:18:27;94726.66;;;28.77;45.64
70745;BME280;59284;31.390;34.904;2023-01-27T14:23:45;94724.75;;;28.77;43.47
70745;BME280;59284;31.390;34.904;2023-01-27T14:26:52;94719.22;;;29.11;44.19